Time;durP1;ratioP1;P1;durP2;ratioP2;P2;SDS_P1;SDS_P2;PMS_P1;PMS_P2;Temp;Humidity;BMP_temperature;BMP_pressure;BME280_temperature;BME280_humidity;BME280_pressure;Samples;Min_cycle;Max_cycle;Signal;HPM_P1;HPM_P2
2023/06/01 00:02:26;;;;;;;4.40;1.73;;;;;;;;;;5056731;28;20443;-55
2023/06/01 00:04:54;;;;;;;3.17;1.63;;;;;;;;;;5056619;28;20564;-59
2023/06/01 00:07:23;;;;;;;1.43;1.00;;;;;;;;;;5054304;28;20440;-60
2023/06/01 00:09:50;;;;;;;2.17;1.90;;;;;;;;;;5055493;28;20480;-54
2023/06/01 00:12:19;;;;;;;4.80;1.60;;;18.90;89.70;;;;;;5056044;28;20942;-58
2023/06/01 00:14:46;;;;;;;3.10;2.10;;;;;;;;;;5054043;28;20484;-59
2023/06/01 00:17:13;;;;;;;2.37;1.97;;;;;;;;;;5056617;28;20436;-58
2023/06/01 00:19:40;;;;;;;2.57;1.30;;;;;;;;;;5054556;28;20487;-59
2023/06/01 00:22:08;;;;;;;1.57;1.47;;;;;;;;;;5056715;28;20494;-58
2023/06/01 00:24:35;;;;;;;4.67;2.37;;;;;;;;;;5052956;28;20454;-56
2023/06/01 00:27:02;;;;;;;2.73;1.63;;;;;;;;;;5056605;28;20529;-58
2023/06/01 00:29:31;;;;;;;2.17;1.57;;;;;;;;;;5054715;28;20933;-57
2023/06/01 00:31:58;;;;;;;2.90;1.77;;;;;;;;;;5057078;28;20459;-59
2023/06/01 00:34:25;;;;;;;2.37;1.43;;;;;;;;;;5059249;28;20440;-57
2023/06/01 00:36:52;;;;;;;3.90;1.77;;;;;;;;;;5059890;28;20440;-56
2023/06/01 00:39:19;;;;;;;2.00;1.77;;;;;;;;;;5059193;28;20995;-57
2023/06/01 00:41:46;;;;;;;4.33;2.00;;;;;;;;;;5059254;28;20464;-54
2023/06/01 00:44:13;;;;;;;2.37;2.07;;;;;;;;;;5059252;28;20484;-54
2023/06/01 00:46:42;;;;;;;2.63;1.70;;;18.30;99.90;;;;;;5059240;28;20528;-56
2023/06/01 00:49:09;;;;;;;2.10;1.60;;;;;;;;;;5058548;28;20490;-58
2023/06/01 00:51:36;;;;;;;4.50;2.10;;;;;;;;;;5054123;28;20436;-56
2023/06/01 00:54:03;;;;;;;4.93;2.33;;;;;;;;;;5055847;28;20470;-58
2023/06/01 00:56:31;;;;;;;5.63;2.80;;;;;;;;;;5056765;28;20494;-56
2023/06/01 00:58:58;;;;;;;6.10;1.93;;;;;;;;;;5056232;28;20476;-60
2023/06/01 01:01:25;;;;;;;5.60;2.60;;;;;;;;;;5056204;28;20864;-58
2023/06/01 01:03:57;;;;;;;2.07;1.57;;;18.00;99.90;;;;;;5056614;28;20455;-60
2023/06/01 01:06:35;;;;;;;4.90;2.17;;;18.00;99.90;;;;;;5056370;28;20468;-57
2023/06/01 01:09:17;;;;;;;1.80;1.70;;;17.90;99.90;;;;;;5056360;28;20408;-56
2023/06/01 01:11:51;;;;;;;3.03;2.03;;;17.90;99.90;;;;;;5055030;28;20483;-56
2023/06/01 01:14:23;;;;;;;2.03;1.57;;;17.80;99.90;;;;;;5056343;28;20428;-59
2023/06/01 01:16:59;;;;;;;1.73;1.53;;;17.90;99.90;;;;;;5056367;28;20428;-57
2023/06/01 01:19:54;;;;;;;5.30;1.70;;;17.80;99.90;;;;;;5055968;28;20484;-57
2023/06/01 01:22:26;;;;;;;4.87;1.60;;;;;;;;;;5056518;28;20448;-57
2023/06/01 01:25:09;;;;;;;2.30;1.67;;;17.80;99.90;;;;;;5056176;28;20496;-59
2023/06/01 01:27:44;;;;;;;2.17;1.83;;;17.60;99.90;;;;;;5057071;28;20421;-55
2023/06/01 01:30:13;;;;;;;2.90;1.87;;;17.70;99.90;;;;;;5054537;28;20503;-59
2023/06/01 01:32:41;;;;;;;4.00;1.80;;;17.80;99.90;;;;;;5055241;28;20474;-55
2023/06/01 01:35:10;;;;;;;2.27;1.90;;;17.50;99.90;;;;;;5056050;28;20475;-59
2023/06/01 01:37:37;;;;;;;2.80;1.90;;;;;;;;;;5056154;28;20447;-56
2023/06/01 01:40:05;;;;;;;5.53;2.13;;;;;;;;;;5055261;28;20474;-58
2023/06/01 01:42:32;;;;;;;5.00;2.17;;;;;;;;;;5053150;28;20496;-57
2023/06/01 01:44:59;;;;;;;3.83;2.20;;;;;;;;;;5056035;28;20539;-56
2023/06/01 01:47:34;;;;;;;3.10;1.70;;;17.20;99.90;;;;;;5056246;28;20468;-59
2023/06/01 01:50:07;;;;;;;2.47;1.67;;;17.50;99.90;;;;;;5056441;28;20412;-55
2023/06/01 01:52:37;;;;;;;3.53;2.00;;;17.50;99.90;;;;;;5056492;28;20468;-56
2023/06/01 01:55:08;;;;;;;3.60;1.70;;;17.40;99.90;;;;;;5056431;28;20432;-57
2023/06/01 01:57:36;;;;;;;2.37;1.70;;;17.20;99.90;;;;;;5056762;28;20440;-57
2023/06/01 02:00:03;;;;;;;2.13;1.93;;;;;;;;;;5056734;28;20475;-60
2023/06/01 02:02:33;;;;;;;5.70;2.00;;;17.20;99.90;;;;;;5056073;28;20574;-59
2023/06/01 02:05:00;;;;;;;3.30;2.43;;;;;;;;;;5055679;28;20483;-54
2023/06/01 02:07:28;;;;;;;5.10;2.30;;;;;;;;;;5056130;28;20471;-57
2023/06/01 02:09:55;;;;;;;3.20;1.93;;;;;;;;;;5054444;28;20563;-58
2023/06/01 02:12:23;;;;;;;3.13;1.83;;;;;;;;;;5055488;28;20463;-57
2023/06/01 02:14:50;;;;;;;3.73;1.63;;;;;;;;;;5055974;28;20452;-57
2023/06/01 02:17:17;;;;;;;3.30;1.80;;;;;;;;;;5056380;28;20452;-59
2023/06/01 02:19:46;;;;;;;4.47;2.30;;;;;;;;;;5055238;28;20507;-57
2023/06/01 02:22:13;;;;;;;3.80;2.00;;;;;;;;;;5055881;28;20468;-57
2023/06/01 02:24:40;;;;;;;2.90;2.10;;;17.00;99.90;;;;;;5055436;28;20472;-57
2023/06/01 02:27:07;;;;;;;2.40;2.00;;;;;;;;;;5054920;28;20555;-58
2023/06/01 02:29:35;;;;;;;5.70;1.60;;;;;;;;;;5053855;28;20812;-61
2023/06/01 02:32:02;;;;;;;4.60;1.60;;;;;;;;;;5055887;28;20482;-53
2023/06/01 02:34:29;;;;;;;3.70;1.70;;;;;;;;;;5056505;28;20484;-53
2023/06/01 02:36:58;;;;;;;3.10;1.97;;;16.40;99.90;;;;;;5056833;28;20436;-57
2023/06/01 02:39:25;;;;;;;4.90;2.57;;;;;;;;;;5057097;28;20990;-57
2023/06/01 02:41:52;;;;;;;6.70;2.10;;;;;;;;;;5056775;28;20459;-59
2023/06/01 02:44:19;;;;;;;5.40;2.17;;;;;;;;;;5055404;28;20491;-58
2023/06/01 02:46:47;;;;;;;4.50;2.30;;;;;;;;;;5054247;28;20444;-56
2023/06/01 02:49:14;;;;;;;14.03;2.07;;;;;;;;;;5055354;28;20495;-55
2023/06/01 02:51:41;;;;;;;4.47;2.03;;;;;;;;;;5055105;28;20436;-55
2023/06/01 02:54:09;;;;;;;4.00;2.63;;;;;;;;;;5054564;28;20440;-55
2023/06/01 02:56:36;;;;;;;7.33;2.50;;;;;;;;;;5055100;28;20475;-60
2023/06/01 02:59:04;;;;;;;4.93;2.17;;;;;;;;;;5055061;28;20464;-57
2023/06/01 03:01:34;;;;;;;4.03;2.17;;;;;;;;;;5055556;28;20476;-58
2023/06/01 03:04:03;;;;;;;4.07;2.67;;;;;;;;;;5055796;28;20496;-55
2023/06/01 03:06:31;;;;;;;5.60;2.93;;;;;;;;;;5056187;28;20421;-56
2023/06/01 03:08:59;;;;;;;2.60;2.13;;;;;;;;;;5055310;28;20459;-58
2023/06/01 03:11:27;;;;;;;5.60;2.53;;;15.80;99.90;;;;;;5055225;28;20452;-55
2023/06/01 03:13:56;;;;;;;5.27;2.87;;;;;;;;;;5055349;28;20508;-54
2023/06/01 03:16:23;;;;;;;5.70;2.23;;;;;;;;;;5055574;28;20467;-57
2023/06/01 03:18:52;;;;;;;8.97;3.60;;;;;;;;;;5055551;28;20479;-55
2023/06/01 03:21:19;;;;;;;3.43;2.43;;;;;;;;;;5055834;28;20488;-56
2023/06/01 03:23:46;;;;;;;6.37;3.20;;;;;;;;;;5056890;28;20482;-55
2023/06/01 03:26:13;;;;;;;7.00;4.60;;;;;;;;;;5056848;28;20432;-57
2023/06/01 03:28:42;;;;;;;7.70;2.90;;;15.40;99.90;;;;;;5056434;28;20461;-54
2023/06/01 03:31:11;;;;;;;5.37;3.23;;;;;;;;;;5055504;28;20428;-59
2023/06/01 03:33:38;;;;;;;4.07;2.50;;;;;;;;;;5056197;28;20480;-57
2023/06/01 03:36:06;;;;;;;4.50;2.90;;;;;;;;;;5055587;28;20456;-55
2023/06/01 03:38:34;;;;;;;8.57;3.33;;;;;;;;;;5055974;28;20508;-59
2023/06/01 03:41:02;;;;;;;4.43;2.50;;;;;;;;;;5056190;28;20482;-54
2023/06/01 03:43:29;;;;;;;5.50;3.53;;;;;;;;;;5056113;28;20440;-58
2023/06/01 03:46:02;;;;;;;5.23;3.17;;;15.00;99.90;;;;;;5056369;28;20440;-57
2023/06/01 03:48:29;;;;;;;7.77;3.80;;;;;;;;;;5054791;28;20474;-58
2023/06/01 03:50:59;;;;;;;11.20;3.97;;;15.00;99.90;;;;;;5052430;28;20456;-58
2023/06/01 03:53:26;;;;;;;4.30;3.40;;;;;;;;;;5053097;28;20498;-58
2023/06/01 03:55:56;;;;;;;4.20;3.50;;;15.00;99.90;;;;;;5052661;28;20456;-56
2023/06/01 03:58:24;;;;;;;6.10;4.03;;;14.80;99.90;;;;;;5056285;28;20461;-56
2023/06/01 04:00:52;;;;;;;4.87;2.90;;;;;;;;;;5056342;28;20421;-58
2023/06/01 04:03:21;;;;;;;10.30;3.13;;;15.10;99.90;;;;;;5056000;28;20536;-56
2023/06/01 04:05:49;;;;;;;6.83;3.50;;;;;;;;;;5055976;28;20485;-55
2023/06/01 04:08:19;;;;;;;9.20;4.17;;;;;;;;;;5055895;28;20440;-60
2023/06/01 04:10:46;;;;;;;15.30;4.10;;;;;;;;;;5056013;28;20478;-57
2023/06/01 04:13:14;;;;;;;11.10;4.57;;;;;;;;;;5056307;28;20429;-58
2023/06/01 04:15:44;;;;;;;9.60;4.00;;;;;;;;;;5055842;28;20478;-60
2023/06/01 04:18:11;;;;;;;9.10;4.57;;;;;;;;;;5055703;28;20472;-57
2023/06/01 04:20:40;;;;;;;7.17;4.50;;;14.50;99.90;;;;;;5056034;28;20448;-57
2023/06/01 04:23:07;;;;;;;8.70;3.33;;;;;;;;;;5056441;28;20468;-59
2023/06/01 04:25:35;;;;;;;5.60;3.47;;;;;;;;;;5055584;28;20439;-54
2023/06/01 04:28:03;;;;;;;10.93;4.53;;;;;;;;;;5056015;28;20448;-59
2023/06/01 04:30:30;;;;;;;10.43;5.27;;;;;;;;;;5055777;28;20455;-59
2023/06/01 04:32:57;;;;;;;8.23;4.60;;;;;;;;;;5055772;28;20440;-55
2023/06/01 04:35:24;;;;;;;10.80;4.60;;;;;;;;;;5055363;28;20460;-57
2023/06/01 04:37:52;;;;;;;14.77;4.47;;;14.40;99.90;;;;;;5055939;28;20412;-55
2023/06/01 04:40:20;;;;;;;5.77;4.73;;;;;;;;;;5055430;28;20483;-57
2023/06/01 04:42:48;;;;;;;6.90;4.17;;;;;;;;;;5055311;28;20456;-55
2023/06/01 04:45:16;;;;;;;11.17;4.93;;;14.20;99.90;;;;;;5055840;28;20489;-53
2023/06/01 04:47:46;;;;;;;11.07;6.10;;;;;;;;;;5059035;28;20444;-55
2023/06/01 04:50:15;;;;;;;7.57;5.00;;;;;;;;;;5057097;28;20451;-59
2023/06/01 04:52:43;;;;;;;10.73;6.10;;;14.60;99.90;;;;;;5058181;28;20459;-58
2023/06/01 04:55:13;;;;;;;12.13;6.10;;;;;;;;;;5059423;28;20471;-54
2023/06/01 04:57:43;;;;;;;11.70;5.23;;;14.00;99.90;;;;;;5059650;28;20498;-58
2023/06/01 05:00:12;;;;;;;11.60;5.13;;;14.30;99.90;;;;;;5058873;28;20529;-52
2023/06/01 05:02:40;;;;;;;11.77;6.20;;;;;;;;;;5057984;28;20416;-56
2023/06/01 05:05:08;;;;;;;8.67;5.33;;;;;;;;;;5056332;28;20444;-56
2023/06/01 05:07:36;;;;;;;11.40;6.20;;;;;;;;;;5057497;28;20473;-55
2023/06/01 05:10:05;;;;;;;13.23;6.87;;;;;;;;;;5058988;28;20448;-51
2023/06/01 05:12:34;;;;;;;10.27;6.80;;;;;;;;;;5059427;28;20476;-55
2023/06/01 05:15:01;;;;;;;12.10;6.37;;;;;;;;;;5059374;28;20444;-58
2023/06/01 05:17:30;;;;;;;17.57;9.73;;;;;;;;;;5058762;28;20431;-57
2023/06/01 05:19:57;;;;;;;16.80;10.27;;;;;;;;;;5054567;28;20487;-59
2023/06/01 05:22:24;;;;;;;15.90;8.60;;;;;;;;;;5058116;28;20446;-53
2023/06/01 05:24:51;;;;;;;14.33;8.20;;;;;;;;;;5059311;28;20461;-58
2023/06/01 05:27:18;;;;;;;17.20;9.80;;;;;;;;;;5058210;28;20420;-53
2023/06/01 05:29:47;;;;;;;16.40;9.83;;;13.30;99.90;;;;;;5059076;28;20440;-54
2023/06/01 05:32:14;;;;;;;14.13;9.27;;;;;;;;;;5058121;28;20463;-57
2023/06/01 05:34:41;;;;;;;23.30;9.90;;;;;;;;;;5058620;28;20440;-54
2023/06/01 05:37:08;;;;;;;15.50;8.67;;;;;;;;;;5058562;28;20443;-52
2023/06/01 05:39:35;;;;;;;21.43;9.27;;;;;;;;;;5058811;28;20467;-55
2023/06/01 05:42:03;;;;;;;13.40;8.20;;;;;;;;;;5058358;28;20443;-54
2023/06/01 05:44:30;;;;;;;17.50;7.67;;;;;;;;;;5057862;28;20487;-56
2023/06/01 05:47:01;;;;;;;15.50;8.27;;;13.70;99.90;;;;;;5058229;28;20452;-55
2023/06/01 05:49:31;;;;;;;12.17;8.47;;;;;;;;;;5058143;28;20416;-56
2023/06/01 05:51:58;;;;;;;16.53;8.77;;;;;;;;;;5058404;28;20484;-56
2023/06/01 05:54:25;;;;;;;15.93;8.20;;;;;;;;;;5057595;28;20444;-55
2023/06/01 05:56:52;;;;;;;15.23;8.43;;;;;;;;;;5058474;28;20471;-59
2023/06/01 05:59:19;;;;;;;9.70;7.07;;;;;;;;;;5057014;28;20483;-58
2023/06/01 06:01:47;;;;;;;11.10;7.13;;;;;;;;;;5057681;28;20459;-60
2023/06/01 06:04:16;;;;;;;17.23;7.53;;;;;;;;;;5057769;28;20424;-56
2023/06/01 06:06:43;;;;;;;13.20;5.90;;;;;;;;;;5057944;28;20454;-56
2023/06/01 06:09:13;;;;;;;20.17;7.20;;;;;;;;;;5057264;28;20468;-58
2023/06/01 06:11:40;;;;;;;10.20;5.57;;;;;;;;;;5057592;28;20459;-56
2023/06/01 06:14:07;;;;;;;13.23;7.50;;;;;;;;;;5056928;28;20452;-53
2023/06/01 06:16:34;;;;;;;6.70;4.93;;;;;;;;;;5057522;28;20429;-56
2023/06/01 06:19:02;;;;;;;11.80;7.00;;;;;;;;;;5057667;28;20440;-52
2023/06/01 06:21:31;;;;;;;16.07;6.90;;;;;;;;;;5055625;28;20460;-59
2023/06/01 06:23:59;;;;;;;14.27;5.03;;;;;;;;;;5055885;28;20569;-59
2023/06/01 06:26:27;;;;;;;6.83;5.33;;;;;;;;;;5055184;28;20444;-57
2023/06/01 06:28:54;;;;;;;8.40;4.70;;;;;;;;;;5057663;28;20417;-57
2023/06/01 06:31:22;;;;;;;5.67;4.57;;;;;;;;;;5057249;28;20435;-56
2023/06/01 06:33:49;;;;;;;8.77;5.23;;;;;;;;;;5057325;28;20495;-54
2023/06/01 06:36:17;;;;;;;6.93;4.50;;;;;;;;;;5057135;28;20444;-59
2023/06/01 06:38:45;;;;;;;8.07;5.10;;;;;;;;;;5057457;28;20437;-54
2023/06/01 06:41:14;;;;;;;9.97;5.47;;;;;;;;;;5056580;28;20467;-58
2023/06/01 06:43:41;;;;;;;9.17;5.50;;;;;;;;;;5056887;28;20587;-55
2023/06/01 06:46:09;;;;;;;8.43;5.77;;;;;;;;;;5056668;28;20479;-54
2023/06/01 06:48:36;;;;;;;10.33;5.20;;;;;;;;;;5056979;28;20512;-54
2023/06/01 06:51:03;;;;;;;7.00;4.20;;;;;;;;;;5057068;28;20471;-55
2023/06/01 06:53:31;;;;;;;10.97;4.47;;;;;;;;;;5057380;28;20466;-55
2023/06/01 06:55:59;;;;;;;7.37;4.17;;;;;;;;;;5056525;28;20512;-59
2023/06/01 06:58:27;;;;;;;12.53;5.00;;;;;;;;;;5056471;28;20459;-55
2023/06/01 07:00:54;;;;;;;10.03;5.10;;;;;;;;;;5056947;28;20468;-56
2023/06/01 07:03:21;;;;;;;21.63;6.43;;;;;;;;;;5056694;28;20503;-58
2023/06/01 07:05:48;;;;;;;7.17;5.47;;;;;;;;;;5056978;28;20471;-52
2023/06/01 07:08:16;;;;;;;11.93;4.83;;;;;;;;;;5056794;28;20455;-58
2023/06/01 07:10:43;;;;;;;8.07;4.37;;;;;;;;;;5056408;28;20436;-57
2023/06/01 07:13:11;;;;;;;5.73;4.40;;;14.90;99.90;;;;;;5056938;28;20408;-50
2023/06/01 07:15:38;;;;;;;6.37;4.70;;;;;;;;;;5056738;28;20455;-56
2023/06/01 07:18:07;;;;;;;10.33;5.20;;;;;;;;;;5056942;28;20433;-57
2023/06/01 07:20:35;;;;;;;10.60;4.93;;;;;;;;;;5055880;28;20511;-53
2023/06/01 07:23:02;;;;;;;3.73;3.20;;;;;;;;;;5055384;28;20451;-59
2023/06/01 07:25:29;;;;;;;5.03;3.90;;;;;;;;;;5050110;28;20440;-60
2023/06/01 07:27:56;;;;;;;4.23;3.53;;;;;;;;;;5052479;28;20491;-53
2023/06/01 07:30:24;;;;;;;12.00;4.43;;;21.30;99.90;;;;;;5054032;28;20448;-57
2023/06/01 07:32:51;;;;;;;7.77;3.90;;;;;;;;;;5052679;28;20483;-58
2023/06/01 07:35:20;;;;;;;7.60;3.80;;;;;;;;;;5051593;28;20440;-54
2023/06/01 07:37:47;;;;;;;5.80;3.53;;;;;;;;;;5056688;28;20499;-58
2023/06/01 07:40:15;;;;;;;8.40;3.73;;;;;;;;;;5052871;28;20514;-56
2023/06/01 07:42:42;;;;;;;5.10;3.93;;;;;;;;;;5051551;28;20933;-57
2023/06/01 07:45:10;;;;;;;4.77;3.40;;;23.50;99.90;;;;;;5044892;28;20492;-58
2023/06/01 07:47:39;;;;;;;5.60;4.03;;;;;;;;;;5047864;28;20550;-56
2023/06/01 07:50:07;;;;;;;9.33;4.30;;;22.40;99.90;;;;;;5049037;28;20460;-58
2023/06/01 07:52:35;;;;;;;6.50;4.33;;;;;;;;;;5051423;28;20444;-58
2023/06/01 07:55:03;;;;;;;4.10;3.50;;;;;;;;;;5048855;28;20551;-59
2023/06/01 07:57:30;;;;;;;6.13;3.83;;;;;;;;;;5052011;28;20475;-60
2023/06/01 07:59:57;;;;;;;7.97;4.27;;;;;;;;;;5051942;28;20536;-60
2023/06/01 08:02:32;;;;;;;6.30;4.20;;;;;;;;;;5053078;28;20471;-63
2023/06/01 08:05:02;;;;;;;9.07;4.53;;;23.70;99.70;;;;;;5052621;28;20422;-54
2023/06/01 08:07:30;;;;;;;7.63;4.10;;;;;;;;;;5041684;28;20462;-58
2023/06/01 08:09:58;;;;;;;6.43;4.53;;;;;;;;;;5053323;28;20475;-58
2023/06/01 08:12:27;;;;;;;4.67;3.77;;;;;;;;;;5055741;28;20524;-55
2023/06/01 08:14:57;;;;;;;3.60;3.30;;;;;;;;;;5053504;28;20491;-58
2023/06/01 08:17:24;;;;;;;4.73;4.30;;;;;;;;;;5055314;28;20425;-60
2023/06/01 08:19:55;;;;;;;4.03;3.73;;;;;;;;;;5055269;28;20484;-58
2023/06/01 08:22:24;;;;;;;7.67;4.33;;;;;;;;;;5058455;28;20435;-55
2023/06/01 08:24:52;;;;;;;6.53;3.53;;;;;;;;;;5057407;28;20475;-58
2023/06/01 08:27:21;;;;;;;8.73;2.90;;;25.60;90.90;;;;;;5058018;28;20420;-58
2023/06/01 08:29:48;;;;;;;7.33;3.47;;;;;;;;;;5058089;28;20443;-60
2023/06/01 08:32:16;;;;;;;3.57;3.20;;;26.00;86.10;;;;;;5049886;28;20482;-58
2023/06/01 08:34:44;;;;;;;6.97;3.67;;;26.40;88.80;;;;;;5057300;28;20444;-55
2023/06/01 08:37:13;;;;;;;6.33;3.00;;;;;;;;;;5057698;28;20526;-59
2023/06/01 08:39:41;;;;;;;5.30;3.40;;;26.90;85.00;;;;;;5058060;28;20448;-65
2023/06/01 08:42:11;;;;;;;5.53;3.80;;;27.20;81.80;;;;;;5057596;28;20470;-60
2023/06/01 08:44:40;;;;;;;3.50;3.20;;;27.40;81.10;;;;;;5058265;28;20425;-59
2023/06/01 08:47:07;;;;;;;4.33;3.80;;;27.00;77.50;;;;;;5057256;28;20540;-59
2023/06/01 08:49:36;;;;;;;5.43;4.20;;;27.00;80.30;;;;;;5057765;28;20444;-61
2023/06/01 08:52:07;;;;;;;3.40;3.10;;;27.30;80.00;;;;;;5055317;28;20451;-64
2023/06/01 08:54:35;;;;;;;3.33;3.03;;;;;;;;;;5055858;28;20464;-62
2023/06/01 08:57:07;;;;;;;5.70;4.03;;;27.00;78.90;;;;;;5056788;28;20447;-61
2023/06/01 08:59:35;;;;;;;4.60;3.20;;;27.10;78.80;;;;;;5058388;28;20464;-59
2023/06/01 09:02:03;;;;;;;4.33;3.10;;;;;;;;;;5058566;28;20524;-60
2023/06/01 09:04:31;;;;;;;9.50;4.10;;;;;;;;;;5058609;28;20504;-61
2023/06/01 09:06:58;;;;;;;7.07;3.17;;;;;;;;;;5056121;28;20500;-54
2023/06/01 09:09:26;;;;;;;8.10;3.40;;;;;;;;;;5059112;28;20444;-60
2023/06/01 09:12:25;;;;;;;5.67;3.50;;;27.80;78.10;;;;;;5057958;28;20448;-57
2023/06/01 09:14:52;;;;;;;5.57;3.50;;;;;;;;;;5058582;28;20424;-58
2023/06/01 09:17:24;;;;;;;4.17;2.97;;;27.90;69.00;;;;;;5055923;28;20502;-60
2023/06/01 09:19:55;;;;;;;6.73;3.30;;;27.80;73.00;;;;;;5055717;28;20897;-58
2023/06/01 09:22:22;;;;;;;8.60;3.87;;;;;;;;;;5057607;28;20425;-54
2023/06/01 09:24:57;;;;;;;5.87;3.23;;;27.70;72.50;;;;;;5058869;28;20478;-60
2023/06/01 09:27:27;;;;;;;4.90;3.20;;;27.80;70.00;;;;;;5056445;28;20499;-61
2023/06/01 09:29:55;;;;;;;3.83;3.03;;;27.70;73.90;;;;;;5057512;28;20503;-59
2023/06/01 09:32:22;;;;;;;6.73;2.97;;;;;;;;;;5057810;28;20440;-57
2023/06/01 09:34:53;;;;;;;3.87;3.40;;;;;;;;;;5058376;28;20468;-57
2023/06/01 09:37:20;;;;;;;4.30;3.83;;;;;;;;;;5056365;28;20455;-54
2023/06/01 09:39:48;;;;;;;9.27;4.13;;;;;;;;;;5054495;28;20472;-60
2023/06/01 09:42:15;;;;;;;4.80;3.77;;;;;;;;;;5057780;28;20464;-57
2023/06/01 09:44:44;;;;;;;6.40;4.33;;;26.70;75.70;;;;;;5056540;28;20764;-60
2023/06/01 09:47:12;;;;;;;6.97;4.17;;;27.00;75.30;;;;;;5056325;28;20451;-57
2023/06/01 09:49:41;;;;;;;8.50;4.50;;;26.80;74.30;;;;;;5057787;28;20496;-61
2023/06/01 09:52:14;;;;;;;6.43;4.17;;;26.60;67.90;;;;;;5057597;28;20464;-58
2023/06/01 09:54:44;;;;;;;7.07;3.70;;;27.20;74.10;;;;;;5057852;28;20821;-61
2023/06/01 09:57:12;;;;;;;8.23;4.67;;;28.10;71.60;;;;;;5056850;28;20452;-59
2023/06/01 09:59:41;;;;;;;11.83;5.23;;;27.90;71.70;;;;;;5058235;28;20433;-58
2023/06/01 10:02:14;;;;;;;8.33;4.13;;;28.00;72.00;;;;;;5041522;28;20564;-55
2023/06/01 10:04:42;;;;;;;6.70;3.90;;;28.10;71.80;;;;;;5057426;28;20444;-60
2023/06/01 10:07:11;;;;;;;8.60;4.27;;;;;;;;;;5055797;28;20483;-60
2023/06/01 10:09:39;;;;;;;6.20;4.47;;;28.30;71.70;;;;;;5051983;28;20487;-61
2023/06/01 10:12:08;;;;;;;5.10;4.40;;;28.10;72.70;;;;;;5055942;28;20455;-58
2023/06/01 10:14:37;;;;;;;9.87;5.57;;;27.60;72.80;;;;;;5057022;28;20452;-58
2023/06/01 10:17:04;;;;;;;7.60;4.13;;;;;;;;;;5053486;28;20432;-56
2023/06/01 10:19:33;;;;;;;6.10;4.60;;;27.10;73.20;;;;;;5045741;28;20440;-62
2023/06/01 10:22:00;;;;;;;7.03;5.77;;;;;;;;;;5054301;28;20460;-59
2023/06/01 10:24:28;;;;;;;8.93;7.70;;;26.90;73.00;;;;;;5057787;28;20476;-60
2023/06/01 10:27:06;;;;;;;6.13;5.23;;;26.80;74.00;;;;;;5057142;28;20451;-59
2023/06/01 10:29:34;;;;;;;7.90;6.30;;;26.50;72.70;;;;;;5056439;28;20428;-59
2023/06/01 10:32:01;;;;;;;8.17;6.43;;;;;;;;;;5055145;28;20460;-62
2023/06/01 10:34:47;;;;;;;12.20;6.13;;;26.00;70.20;;;;;;5055083;28;20444;-59
2023/06/01 10:37:18;;;;;;;9.10;6.30;;;26.20;78.30;;;;;;5057469;28;20508;-55
2023/06/01 10:39:45;;;;;;;6.83;5.27;;;;;;;;;;5056379;28;20447;-61
2023/06/01 10:42:49;;;;;;;9.13;6.50;;;26.20;68.20;;;;;;5056558;28;20485;-53
2023/06/01 10:45:39;;;;;;;6.53;5.80;;;26.10;70.40;;;;;;5055865;28;20428;-53
2023/06/01 10:48:07;;;;;;;12.63;6.20;;;25.80;74.00;;;;;;5057018;28;20440;-52
2023/06/01 10:50:36;;;;;;;10.93;6.40;;;25.60;77.20;;;;;;5054595;28;20491;-62
2023/06/01 10:53:25;;;;;;;10.37;5.90;;;25.50;77.90;;;;;;5056414;28;20758;-60
2023/06/01 10:56:19;;;;;;;19.00;7.20;;;25.40;77.80;;;;;;5056466;28;20550;-62
2023/06/01 10:58:47;;;;;;;8.53;6.23;;;;;;;;;;5056795;28;20427;-54
2023/06/01 11:01:21;;;;;;;6.93;5.67;;;25.00;79.10;;;;;;5053989;28;20508;-61
2023/06/01 11:03:50;;;;;;;9.03;6.67;;;24.60;79.00;;;;;;5056049;28;20429;-64
2023/06/01 11:06:31;;;;;;;17.83;11.23;;;24.90;72.70;;;;;;5055850;28;20451;-59
2023/06/01 11:09:00;;;;;;;15.30;7.03;;;24.60;81.20;;;;;;5054757;28;20460;-60
2023/06/01 11:12:00;;;;;;;8.50;6.37;;;24.70;81.80;;;;;;5053113;28;20459;-64
2023/06/01 11:14:30;;;;;;;10.50;6.60;;;24.60;82.40;;;;;;5050793;28;20512;-57
2023/06/01 11:17:27;;;;;;;9.00;6.50;;;24.40;82.10;;;;;;5053189;28;20429;-54
2023/06/01 11:20:00;;;;;;;6.57;5.40;;;24.50;82.30;;;;;;5054335;28;20463;-61
2023/06/01 11:22:36;;;;;;;12.30;6.33;;;24.80;82.60;;;;;;5052553;28;20456;-62
2023/06/01 11:25:07;;;;;;;12.20;6.77;;;24.70;81.80;;;;;;5053728;28;20499;-62
2023/06/01 11:27:35;;;;;;;11.40;6.00;;;;;;;;;;5054636;28;20448;-56
2023/06/01 11:30:03;;;;;;;11.87;6.60;;;;;;;;;;5054954;28;20440;-62
2023/06/01 11:32:30;;;;;;;9.60;6.10;;;;;;;;;;5054874;28;20440;-60
2023/06/01 11:34:59;;;;;;;13.50;7.53;;;;;;;;;;5055990;28;20443;-60
2023/06/01 11:37:28;;;;;;;8.23;5.93;;;;;;;;;;5054680;28;20507;-57
2023/06/01 11:40:07;;;;;;;10.23;6.20;;;24.10;84.60;;;;;;5052425;28;20495;-59
2023/06/01 11:42:37;;;;;;;8.20;6.20;;;23.70;84.30;;;;;;5054794;28;20472;-58
2023/06/01 11:45:04;;;;;;;13.07;5.60;;;;;;;;;;5054817;28;20530;-58
2023/06/01 11:47:32;;;;;;;7.60;5.97;;;;;;;;;;5054795;28;20459;-60
2023/06/01 11:50:00;;;;;;;11.43;6.40;;;;;;;;;;5053161;28;20908;-58
2023/06/01 11:52:27;;;;;;;8.30;5.47;;;;;;;;;;5053818;28;20472;-59
2023/06/01 11:54:54;;;;;;;10.13;5.73;;;;;;;;;;5053699;28;20440;-58
2023/06/01 11:57:23;;;;;;;10.53;5.83;;;24.20;86.20;;;;;;5054853;28;20448;-60
2023/06/01 11:59:51;;;;;;;8.00;5.80;;;23.80;83.80;;;;;;5053686;28;20466;-58
2023/06/01 12:02:20;;;;;;;6.20;5.20;;;23.80;86.10;;;;;;5054945;28;20507;-60
2023/06/01 12:04:57;;;;;;;7.30;5.70;;;23.80;86.20;;;;;;5055135;28;20479;-58
2023/06/01 12:07:24;;;;;;;7.97;5.50;;;;;;;;;;5055602;28;20463;-60
2023/06/01 12:09:53;;;;;;;5.87;4.17;;;;;;;;;;5055402;28;20440;-54
2023/06/01 12:12:21;;;;;;;7.20;5.97;;;;;;;;;;5053039;28;20925;-55
2023/06/01 12:14:50;;;;;;;12.73;6.10;;;23.80;87.60;;;;;;5052843;28;20524;-60
2023/06/01 12:17:18;;;;;;;6.57;5.07;;;;;;;;;;5054322;28;20460;-56
2023/06/01 12:19:48;;;;;;;7.73;4.70;;;23.70;81.20;;;;;;5054983;28;20455;-60
2023/06/01 12:22:15;;;;;;;8.50;4.87;;;;;;;;;;5052868;28;20541;-61
2023/06/01 12:24:43;;;;;;;9.13;4.73;;;;;;;;;;5054898;28;20451;-61
2023/06/01 12:27:19;;;;;;;9.93;5.77;;;23.60;87.90;;;;;;5055119;28;20440;-57
2023/06/01 12:29:50;;;;;;;16.23;5.40;;;23.40;88.00;;;;;;5047403;28;20467;-60
2023/06/01 12:32:17;;;;;;;7.83;5.47;;;;;;;;;;5055552;28;20429;-55
2023/06/01 12:34:47;;;;;;;7.27;5.17;;;;;;;;;;5055206;28;20443;-59
2023/06/01 12:37:15;;;;;;;6.77;5.00;;;23.50;88.90;;;;;;5055534;28;20451;-55
2023/06/01 12:39:43;;;;;;;7.17;4.30;;;;;;;;;;5052751;28;20440;-60
2023/06/01 12:42:11;;;;;;;8.07;4.80;;;23.70;87.30;;;;;;5051303;28;20487;-61
2023/06/01 12:44:41;;;;;;;8.07;4.93;;;;;;;;;;5055266;28;20431;-60
2023/06/01 12:47:09;;;;;;;5.70;4.47;;;24.00;87.20;;;;;;5055261;28;20440;-58
2023/06/01 12:49:37;;;;;;;6.20;5.27;;;;;;;;;;5055170;28;20412;-55
2023/06/01 12:52:06;;;;;;;7.37;4.60;;;23.70;87.20;;;;;;5055119;28;20509;-57
2023/06/01 12:54:33;;;;;;;5.20;4.70;;;;;;;;;;5055011;28;20474;-56
2023/06/01 12:57:01;;;;;;;6.83;5.00;;;;;;;;;;5053289;28;20442;-58
2023/06/01 12:59:29;;;;;;;7.00;4.57;;;;;;;;;;5052706;28;20508;-60
2023/06/01 13:01:56;;;;;;;5.07;4.00;;;;;;;;;;5053444;28;20488;-60
2023/06/01 13:04:24;;;;;;;16.70;4.97;;;24.00;86.60;;;;;;5054530;28;20443;-57
2023/06/01 13:06:51;;;;;;;12.03;4.87;;;;;;;;;;5055620;28;20452;-58
2023/06/01 13:09:19;;;;;;;6.13;4.30;;;;;;;;;;5056350;28;20760;-59
2023/06/01 13:11:46;;;;;;;5.10;4.20;;;;;;;;;;5059455;28;20444;-54
2023/06/01 13:14:14;;;;;;;5.23;4.37;;;;;;;;;;5058793;28;20468;-55
2023/06/01 13:16:41;;;;;;;7.53;4.50;;;;;;;;;;5059099;28;20511;-57
2023/06/01 13:19:09;;;;;;;11.57;4.80;;;;;;;;;;5058978;28;20447;-58
2023/06/01 13:21:37;;;;;;;8.40;3.90;;;;;;;;;;5057648;28;20475;-57
2023/06/01 13:24:07;;;;;;;9.83;5.00;;;23.80;86.60;;;;;;5058832;28;20519;-56
2023/06/01 13:26:35;;;;;;;7.77;4.47;;;;;;;;;;5057978;28;20482;-56
2023/06/01 13:29:06;;;;;;;7.77;5.13;;;;;;;;;;5058088;28;20424;-56
2023/06/01 13:31:38;;;;;;;12.93;4.20;;;23.80;86.10;;;;;;5057776;28;20428;-65
2023/06/01 13:34:05;;;;;;;8.40;4.40;;;;;;;;;;5058497;28;20469;-68
2023/06/01 13:36:32;;;;;;;6.30;4.90;;;;;;;;;;5058368;28;20444;-67
2023/06/01 13:39:01;;;;;;;5.07;4.00;;;23.90;86.60;;;;;;5055791;28;20464;-73
2023/06/01 13:41:28;;;;;;;6.80;4.03;;;;;;;;;;5056573;28;20804;-72
2023/06/01 13:43:55;;;;;;;5.70;3.97;;;;;;;;;;5057655;28;20471;-63
2023/06/01 13:46:23;;;;;;;7.03;4.03;;;;;;;;;;5056010;28;20443;-65
2023/06/01 13:48:50;;;;;;;7.67;4.23;;;;;;;;;;5048205;28;20449;-68
2023/06/01 13:51:19;;;;;;;7.90;4.50;;;24.20;86.30;;;;;;5054758;28;20496;-67
2023/06/01 13:53:46;;;;;;;5.43;3.60;;;;;;;;;;5055797;28;20470;-67
2023/06/01 13:56:14;;;;;;;5.90;3.87;;;24.40;85.40;;;;;;5057664;28;20424;-67
2023/06/01 13:58:41;;;;;;;3.60;2.87;;;;;;;;;;5055556;28;20468;-64
2023/06/01 14:01:09;;;;;;;9.10;4.40;;;;;;;;;;5057629;28;20524;-64
2023/06/01 14:03:36;;;;;;;4.73;4.17;;;;;;;;;;5057601;28;20491;-66
2023/06/01 14:06:04;;;;;;;7.40;3.43;;;;;;;;;;5055333;28;20440;-59
2023/06/01 14:08:31;;;;;;;7.23;4.40;;;;;;;;;;5057511;28;20439;-60
2023/06/01 14:10:58;;;;;;;9.70;4.47;;;;;;;;;;5056804;28;20476;-63